sensor_id;sensor_type;location;lat;lon;timestamp;P1;durP1;ratioP1;P2;durP2;ratioP2
42332;SDS011;27984;51.476;5.702;2023-12-14T00:01:15;33.95;;;21.90;;
42332;SDS011;27984;51.476;5.702;2023-12-14T00:03:41;32.20;;;21.33;;
42332;SDS011;27984;51.476;5.702;2023-12-14T00:06:09;32.97;;;21.70;;
42332;SDS011;27984;51.476;5.702;2023-12-14T00:08:35;33.10;;;20.15;;
42332;SDS011;27984;51.476;5.702;2023-12-14T00:11:07;29.98;;;19.77;;
42332;SDS011;27984;51.476;5.702;2023-12-14T00:13:33;30.83;;;19.65;;
42332;SDS011;27984;51.476;5.702;2023-12-14T00:15:59;31.75;;;19.48;;
42332;SDS011;27984;51.476;5.702;2023-12-14T00:18:25;29.10;;;19.08;;
42332;SDS011;27984;51.476;5.702;2023-12-14T00:20:51;27.35;;;18.17;;
42332;SDS011;27984;51.476;5.702;2023-12-14T00:23:18;26.50;;;17.75;;
42332;SDS011;27984;51.476;5.702;2023-12-14T00:25:45;26.02;;;17.45;;
42332;SDS011;27984;51.476;5.702;2023-12-14T00:28:11;25.80;;;16.35;;
42332;SDS011;27984;51.476;5.702;2023-12-14T00:30:37;24.25;;;16.40;;
42332;SDS011;27984;51.476;5.702;2023-12-14T00:33:03;24.88;;;15.93;;
42332;SDS011;27984;51.476;5.702;2023-12-14T00:35:29;25.20;;;16.23;;
42332;SDS011;27984;51.476;5.702;2023-12-14T00:37:55;29.88;;;15.75;;
42332;SDS011;27984;51.476;5.702;2023-12-14T00:40:21;24.08;;;14.93;;
42332;SDS011;27984;51.476;5.702;2023-12-14T00:42:47;22.95;;;14.57;;
42332;SDS011;27984;51.476;5.702;2023-12-14T00:45:13;23.35;;;14.32;;
42332;SDS011;27984;51.476;5.702;2023-12-14T00:47:39;23.85;;;14.68;;
42332;SDS011;27984;51.476;5.702;2023-12-14T00:50:05;23.73;;;14.63;;
42332;SDS011;27984;51.476;5.702;2023-12-14T00:52:31;25.10;;;15.95;;
42332;SDS011;27984;51.476;5.702;2023-12-14T00:54:57;27.42;;;16.08;;
42332;SDS011;27984;51.476;5.702;2023-12-14T00:57:23;27.00;;;16.40;;
42332;SDS011;27984;51.476;5.702;2023-12-14T00:59:49;29.77;;;17.88;;
42332;SDS011;27984;51.476;5.702;2023-12-14T01:02:15;29.10;;;18.23;;
42332;SDS011;27984;51.476;5.702;2023-12-14T01:04:41;27.90;;;17.30;;
42332;SDS011;27984;51.476;5.702;2023-12-14T01:07:07;26.08;;;16.25;;
42332;SDS011;27984;51.476;5.702;2023-12-14T01:09:33;29.52;;;17.23;;
42332;SDS011;27984;51.476;5.702;2023-12-14T01:11:59;27.75;;;16.67;;
42332;SDS011;27984;51.476;5.702;2023-12-14T01:14:25;28.98;;;17.05;;
42332;SDS011;27984;51.476;5.702;2023-12-14T01:16:51;25.45;;;16.13;;
42332;SDS011;27984;51.476;5.702;2023-12-14T01:19:17;25.42;;;16.25;;
42332;SDS011;27984;51.476;5.702;2023-12-14T01:21:43;26.55;;;15.88;;
42332;SDS011;27984;51.476;5.702;2023-12-14T01:24:09;27.60;;;17.20;;
42332;SDS011;27984;51.476;5.702;2023-12-14T01:26:35;24.90;;;15.60;;
42332;SDS011;27984;51.476;5.702;2023-12-14T01:29:01;27.58;;;16.70;;
42332;SDS011;27984;51.476;5.702;2023-12-14T01:31:27;27.50;;;17.13;;
42332;SDS011;27984;51.476;5.702;2023-12-14T01:33:53;29.15;;;17.17;;
42332;SDS011;27984;51.476;5.702;2023-12-14T01:36:23;27.55;;;16.98;;
42332;SDS011;27984;51.476;5.702;2023-12-14T01:38:49;26.42;;;16.23;;
42332;SDS011;27984;51.476;5.702;2023-12-14T01:41:15;31.92;;;16.90;;
42332;SDS011;27984;51.476;5.702;2023-12-14T01:43:41;30.55;;;18.08;;
42332;SDS011;27984;51.476;5.702;2023-12-14T01:46:07;31.45;;;18.88;;
42332;SDS011;27984;51.476;5.702;2023-12-14T01:48:33;30.42;;;18.48;;
42332;SDS011;27984;51.476;5.702;2023-12-14T01:50:59;28.95;;;18.08;;
42332;SDS011;27984;51.476;5.702;2023-12-14T01:53:25;27.48;;;17.42;;
42332;SDS011;27984;51.476;5.702;2023-12-14T01:55:51;29.55;;;18.10;;
42332;SDS011;27984;51.476;5.702;2023-12-14T01:58:17;31.40;;;18.40;;
42332;SDS011;27984;51.476;5.702;2023-12-14T02:00:46;29.92;;;18.35;;
42332;SDS011;27984;51.476;5.702;2023-12-14T02:03:14;29.40;;;18.10;;
42332;SDS011;27984;51.476;5.702;2023-12-14T02:05:40;30.65;;;17.30;;
42332;SDS011;27984;51.476;5.702;2023-12-14T02:08:06;29.88;;;17.98;;
42332;SDS011;27984;51.476;5.702;2023-12-14T02:10:33;31.63;;;18.55;;
42332;SDS011;27984;51.476;5.702;2023-12-14T02:13:00;31.20;;;18.08;;
42332;SDS011;27984;51.476;5.702;2023-12-14T02:15:26;30.45;;;17.58;;
42332;SDS011;27984;51.476;5.702;2023-12-14T02:17:52;28.92;;;17.63;;
42332;SDS011;27984;51.476;5.702;2023-12-14T02:20:18;31.00;;;17.08;;
42332;SDS011;27984;51.476;5.702;2023-12-14T02:22:48;27.40;;;17.50;;
42332;SDS011;27984;51.476;5.702;2023-12-14T02:25:15;28.63;;;17.08;;
42332;SDS011;27984;51.476;5.702;2023-12-14T02:27:41;30.10;;;18.15;;
42332;SDS011;27984;51.476;5.702;2023-12-14T02:30:07;29.52;;;16.77;;
42332;SDS011;27984;51.476;5.702;2023-12-14T02:32:33;28.50;;;16.35;;
42332;SDS011;27984;51.476;5.702;2023-12-14T02:34:59;26.75;;;15.45;;
42332;SDS011;27984;51.476;5.702;2023-12-14T02:37:25;26.67;;;15.80;;
42332;SDS011;27984;51.476;5.702;2023-12-14T02:39:51;26.77;;;15.93;;
42332;SDS011;27984;51.476;5.702;2023-12-14T02:42:17;27.83;;;15.52;;
42332;SDS011;27984;51.476;5.702;2023-12-14T02:44:43;28.73;;;15.82;;
42332;SDS011;27984;51.476;5.702;2023-12-14T02:47:09;23.75;;;14.80;;
42332;SDS011;27984;51.476;5.702;2023-12-14T02:49:35;27.15;;;15.25;;
42332;SDS011;27984;51.476;5.702;2023-12-14T02:52:01;26.20;;;15.90;;
42332;SDS011;27984;51.476;5.702;2023-12-14T02:54:27;27.90;;;15.98;;
42332;SDS011;27984;51.476;5.702;2023-12-14T02:56:53;26.10;;;15.48;;
42332;SDS011;27984;51.476;5.702;2023-12-14T02:59:19;29.52;;;15.85;;
42332;SDS011;27984;51.476;5.702;2023-12-14T03:01:45;26.25;;;15.55;;
42332;SDS011;27984;51.476;5.702;2023-12-14T03:04:11;25.63;;;15.10;;
42332;SDS011;27984;51.476;5.702;2023-12-14T03:06:37;27.15;;;15.90;;
42332;SDS011;27984;51.476;5.702;2023-12-14T03:09:03;26.27;;;15.25;;
42332;SDS011;27984;51.476;5.702;2023-12-14T03:11:29;28.52;;;15.55;;
42332;SDS011;27984;51.476;5.702;2023-12-14T03:13:54;29.90;;;15.90;;
42332;SDS011;27984;51.476;5.702;2023-12-14T03:16:21;31.05;;;17.58;;
42332;SDS011;27984;51.476;5.702;2023-12-14T03:18:47;31.30;;;18.00;;
42332;SDS011;27984;51.476;5.702;2023-12-14T03:21:17;32.53;;;17.85;;
42332;SDS011;27984;51.476;5.702;2023-12-14T03:23:43;32.13;;;18.88;;
42332;SDS011;27984;51.476;5.702;2023-12-14T03:26:10;36.55;;;19.83;;
42332;SDS011;27984;51.476;5.702;2023-12-14T03:28:36;38.17;;;20.55;;
42332;SDS011;27984;51.476;5.702;2023-12-14T03:31:02;37.55;;;20.30;;
42332;SDS011;27984;51.476;5.702;2023-12-14T03:33:28;35.00;;;19.50;;
42332;SDS011;27984;51.476;5.702;2023-12-14T03:35:54;36.03;;;19.50;;
42332;SDS011;27984;51.476;5.702;2023-12-14T03:38:20;37.05;;;19.88;;
42332;SDS011;27984;51.476;5.702;2023-12-14T03:40:46;36.65;;;20.50;;
42332;SDS011;27984;51.476;5.702;2023-12-14T03:43:12;33.25;;;20.23;;
42332;SDS011;27984;51.476;5.702;2023-12-14T03:45:38;32.00;;;19.58;;
42332;SDS011;27984;51.476;5.702;2023-12-14T03:48:04;31.85;;;20.15;;
42332;SDS011;27984;51.476;5.702;2023-12-14T03:50:30;37.25;;;20.73;;
42332;SDS011;27984;51.476;5.702;2023-12-14T03:52:57;37.90;;;21.23;;
42332;SDS011;27984;51.476;5.702;2023-12-14T03:55:23;33.47;;;20.02;;
42332;SDS011;27984;51.476;5.702;2023-12-14T03:57:50;35.08;;;19.95;;
42332;SDS011;27984;51.476;5.702;2023-12-14T04:00:16;32.97;;;19.70;;
42332;SDS011;27984;51.476;5.702;2023-12-14T04:02:42;30.00;;;19.55;;
42332;SDS011;27984;51.476;5.702;2023-12-14T04:05:08;30.20;;;18.90;;
42332;SDS011;27984;51.476;5.702;2023-12-14T04:07:35;30.30;;;18.23;;
42332;SDS011;27984;51.476;5.702;2023-12-14T04:10:01;30.13;;;18.10;;
42332;SDS011;27984;51.476;5.702;2023-12-14T04:12:27;28.70;;;18.20;;
42332;SDS011;27984;51.476;5.702;2023-12-14T04:14:53;28.25;;;17.98;;
42332;SDS011;27984;51.476;5.702;2023-12-14T04:17:19;31.95;;;17.90;;
42332;SDS011;27984;51.476;5.702;2023-12-14T04:19:45;30.02;;;18.60;;
42332;SDS011;27984;51.476;5.702;2023-12-14T04:22:11;29.02;;;17.30;;
42332;SDS011;27984;51.476;5.702;2023-12-14T04:24:37;26.52;;;17.13;;
42332;SDS011;27984;51.476;5.702;2023-12-14T04:27:03;27.75;;;17.55;;
42332;SDS011;27984;51.476;5.702;2023-12-14T04:29:29;31.58;;;18.52;;
42332;SDS011;27984;51.476;5.702;2023-12-14T04:31:55;27.25;;;18.02;;
42332;SDS011;27984;51.476;5.702;2023-12-14T04:34:21;29.02;;;18.63;;
42332;SDS011;27984;51.476;5.702;2023-12-14T04:36:47;31.23;;;19.75;;
42332;SDS011;27984;51.476;5.702;2023-12-14T04:39:13;29.33;;;19.30;;
42332;SDS011;27984;51.476;5.702;2023-12-14T04:41:40;29.35;;;18.83;;
42332;SDS011;27984;51.476;5.702;2023-12-14T04:44:06;29.50;;;19.10;;
42332;SDS011;27984;51.476;5.702;2023-12-14T04:46:32;30.73;;;19.92;;
42332;SDS011;27984;51.476;5.702;2023-12-14T04:48:58;31.98;;;19.63;;
42332;SDS011;27984;51.476;5.702;2023-12-14T04:51:24;34.70;;;19.70;;
42332;SDS011;27984;51.476;5.702;2023-12-14T04:53:51;29.58;;;18.95;;
42332;SDS011;27984;51.476;5.702;2023-12-14T04:56:17;28.65;;;18.73;;
42332;SDS011;27984;51.476;5.702;2023-12-14T04:58:43;27.42;;;18.63;;
42332;SDS011;27984;51.476;5.702;2023-12-14T05:01:09;29.13;;;18.23;;
42332;SDS011;27984;51.476;5.702;2023-12-14T05:03:35;30.40;;;19.33;;
42332;SDS011;27984;51.476;5.702;2023-12-14T05:06:01;26.77;;;18.15;;
42332;SDS011;27984;51.476;5.702;2023-12-14T05:08:27;29.05;;;18.58;;
42332;SDS011;27984;51.476;5.702;2023-12-14T05:10:53;26.98;;;18.25;;
42332;SDS011;27984;51.476;5.702;2023-12-14T05:13:19;26.70;;;18.33;;
42332;SDS011;27984;51.476;5.702;2023-12-14T05:15:45;27.02;;;18.08;;
42332;SDS011;27984;51.476;5.702;2023-12-14T05:18:11;26.85;;;18.17;;
42332;SDS011;27984;51.476;5.702;2023-12-14T05:20:37;28.50;;;17.75;;
42332;SDS011;27984;51.476;5.702;2023-12-14T05:23:03;29.35;;;18.55;;
42332;SDS011;27984;51.476;5.702;2023-12-14T05:25:29;27.60;;;18.30;;
42332;SDS011;27984;51.476;5.702;2023-12-14T05:27:55;25.52;;;17.67;;
42332;SDS011;27984;51.476;5.702;2023-12-14T05:30:21;26.85;;;18.52;;
42332;SDS011;27984;51.476;5.702;2023-12-14T05:32:47;27.20;;;18.17;;
42332;SDS011;27984;51.476;5.702;2023-12-14T05:35:13;26.88;;;18.38;;
42332;SDS011;27984;51.476;5.702;2023-12-14T05:37:39;27.65;;;18.05;;
42332;SDS011;27984;51.476;5.702;2023-12-14T05:40:05;27.55;;;18.75;;
42332;SDS011;27984;51.476;5.702;2023-12-14T05:42:31;28.33;;;18.30;;
42332;SDS011;27984;51.476;5.702;2023-12-14T05:44:57;27.90;;;17.58;;
42332;SDS011;27984;51.476;5.702;2023-12-14T05:47:25;30.33;;;18.00;;
42332;SDS011;27984;51.476;5.702;2023-12-14T05:49:51;26.48;;;17.40;;
42332;SDS011;27984;51.476;5.702;2023-12-14T05:52:17;25.70;;;18.35;;
42332;SDS011;27984;51.476;5.702;2023-12-14T05:54:43;24.85;;;17.63;;
42332;SDS011;27984;51.476;5.702;2023-12-14T05:57:09;25.40;;;17.88;;
42332;SDS011;27984;51.476;5.702;2023-12-14T05:59:38;26.05;;;17.45;;
42332;SDS011;27984;51.476;5.702;2023-12-14T06:02:04;25.80;;;17.10;;
42332;SDS011;27984;51.476;5.702;2023-12-14T06:04:31;25.70;;;17.27;;
42332;SDS011;27984;51.476;5.702;2023-12-14T06:06:57;24.00;;;17.48;;
42332;SDS011;27984;51.476;5.702;2023-12-14T06:09:23;22.55;;;16.17;;
42332;SDS011;27984;51.476;5.702;2023-12-14T06:11:59;22.77;;;16.70;;
42332;SDS011;27984;51.476;5.702;2023-12-14T06:14:26;25.63;;;18.30;;
42332;SDS011;27984;51.476;5.702;2023-12-14T06:16:52;25.50;;;16.98;;
42332;SDS011;27984;51.476;5.702;2023-12-14T06:19:18;26.15;;;17.70;;
42332;SDS011;27984;51.476;5.702;2023-12-14T06:21:44;28.35;;;18.45;;
42332;SDS011;27984;51.476;5.702;2023-12-14T06:24:10;30.48;;;18.80;;
42332;SDS011;27984;51.476;5.702;2023-12-14T06:26:40;27.55;;;19.13;;
42332;SDS011;27984;51.476;5.702;2023-12-14T06:29:06;27.30;;;19.23;;
42332;SDS011;27984;51.476;5.702;2023-12-14T06:31:32;29.33;;;19.58;;
42332;SDS011;27984;51.476;5.702;2023-12-14T06:33:58;29.73;;;19.42;;
42332;SDS011;27984;51.476;5.702;2023-12-14T06:36:28;30.70;;;20.13;;
42332;SDS011;27984;51.476;5.702;2023-12-14T06:38:54;29.85;;;19.55;;
42332;SDS011;27984;51.476;5.702;2023-12-14T06:41:23;27.60;;;19.33;;
42332;SDS011;27984;51.476;5.702;2023-12-14T06:43:50;30.05;;;19.33;;
42332;SDS011;27984;51.476;5.702;2023-12-14T06:46:16;27.90;;;19.13;;
42332;SDS011;27984;51.476;5.702;2023-12-14T06:48:42;29.38;;;19.02;;
42332;SDS011;27984;51.476;5.702;2023-12-14T06:51:08;26.63;;;18.90;;
42332;SDS011;27984;51.476;5.702;2023-12-14T06:53:34;28.20;;;19.88;;
42332;SDS011;27984;51.476;5.702;2023-12-14T06:56:02;28.08;;;19.88;;
42332;SDS011;27984;51.476;5.702;2023-12-14T06:58:28;29.15;;;20.33;;
42332;SDS011;27984;51.476;5.702;2023-12-14T07:00:54;30.23;;;20.48;;
42332;SDS011;27984;51.476;5.702;2023-12-14T07:03:20;31.42;;;20.80;;
42332;SDS011;27984;51.476;5.702;2023-12-14T07:05:46;29.33;;;19.52;;
42332;SDS011;27984;51.476;5.702;2023-12-14T07:08:12;30.52;;;20.10;;
42332;SDS011;27984;51.476;5.702;2023-12-14T07:10:38;29.65;;;20.45;;
42332;SDS011;27984;51.476;5.702;2023-12-14T07:13:03;33.40;;;20.17;;
42332;SDS011;27984;51.476;5.702;2023-12-14T07:15:29;31.52;;;20.27;;
42332;SDS011;27984;51.476;5.702;2023-12-14T07:17:55;28.73;;;18.98;;
42332;SDS011;27984;51.476;5.702;2023-12-14T07:20:21;29.33;;;19.73;;
42332;SDS011;27984;51.476;5.702;2023-12-14T07:22:47;30.85;;;20.27;;
42332;SDS011;27984;51.476;5.702;2023-12-14T07:25:13;27.75;;;19.67;;
42332;SDS011;27984;51.476;5.702;2023-12-14T07:27:39;33.22;;;20.10;;
42332;SDS011;27984;51.476;5.702;2023-12-14T07:30:05;26.98;;;19.00;;
42332;SDS011;27984;51.476;5.702;2023-12-14T07:32:31;31.75;;;19.38;;
42332;SDS011;27984;51.476;5.702;2023-12-14T07:34:57;28.20;;;19.10;;
42332;SDS011;27984;51.476;5.702;2023-12-14T07:37:23;28.50;;;19.40;;
42332;SDS011;27984;51.476;5.702;2023-12-14T07:39:49;26.65;;;18.92;;
42332;SDS011;27984;51.476;5.702;2023-12-14T07:42:15;27.95;;;19.20;;
42332;SDS011;27984;51.476;5.702;2023-12-14T07:44:44;29.63;;;18.80;;
42332;SDS011;27984;51.476;5.702;2023-12-14T07:47:10;26.50;;;17.95;;
42332;SDS011;27984;51.476;5.702;2023-12-14T07:49:36;28.38;;;19.08;;
42332;SDS011;27984;51.476;5.702;2023-12-14T07:52:02;28.88;;;19.20;;
42332;SDS011;27984;51.476;5.702;2023-12-14T07:54:28;26.50;;;18.42;;
42332;SDS011;27984;51.476;5.702;2023-12-14T07:56:54;29.08;;;18.92;;
42332;SDS011;27984;51.476;5.702;2023-12-14T07:59:20;25.10;;;17.90;;
42332;SDS011;27984;51.476;5.702;2023-12-14T08:01:46;26.88;;;18.20;;
42332;SDS011;27984;51.476;5.702;2023-12-14T08:04:12;28.92;;;18.58;;
42332;SDS011;27984;51.476;5.702;2023-12-14T08:06:38;26.15;;;17.90;;
42332;SDS011;27984;51.476;5.702;2023-12-14T08:09:05;25.05;;;17.25;;
42332;SDS011;27984;51.476;5.702;2023-12-14T08:11:31;27.80;;;17.88;;
42332;SDS011;27984;51.476;5.702;2023-12-14T08:13:57;28.85;;;18.52;;
42332;SDS011;27984;51.476;5.702;2023-12-14T08:16:23;28.90;;;18.92;;
42332;SDS011;27984;51.476;5.702;2023-12-14T08:18:49;31.52;;;19.08;;
42332;SDS011;27984;51.476;5.702;2023-12-14T08:21:15;28.40;;;18.60;;
42332;SDS011;27984;51.476;5.702;2023-12-14T08:23:42;30.35;;;19.05;;
42332;SDS011;27984;51.476;5.702;2023-12-14T08:26:08;29.63;;;19.73;;
42332;SDS011;27984;51.476;5.702;2023-12-14T08:28:36;31.00;;;19.15;;
42332;SDS011;27984;51.476;5.702;2023-12-14T08:31:02;31.42;;;19.10;;
42332;SDS011;27984;51.476;5.702;2023-12-14T08:33:29;31.80;;;18.17;;
42332;SDS011;27984;51.476;5.702;2023-12-14T08:35:55;31.13;;;19.65;;
42332;SDS011;27984;51.476;5.702;2023-12-14T08:38:21;29.52;;;19.30;;
42332;SDS011;27984;51.476;5.702;2023-12-14T08:40:47;31.05;;;19.67;;
42332;SDS011;27984;51.476;5.702;2023-12-14T08:43:13;30.20;;;19.08;;
42332;SDS011;27984;51.476;5.702;2023-12-14T08:45:39;32.75;;;20.80;;
42332;SDS011;27984;51.476;5.702;2023-12-14T08:48:05;29.88;;;19.67;;
42332;SDS011;27984;51.476;5.702;2023-12-14T08:50:31;30.83;;;19.20;;
42332;SDS011;27984;51.476;5.702;2023-12-14T08:52:57;29.95;;;19.15;;
42332;SDS011;27984;51.476;5.702;2023-12-14T08:55:24;33.45;;;20.20;;
42332;SDS011;27984;51.476;5.702;2023-12-14T08:57:50;28.15;;;19.08;;
42332;SDS011;27984;51.476;5.702;2023-12-14T09:00:16;30.13;;;19.85;;
42332;SDS011;27984;51.476;5.702;2023-12-14T09:02:43;29.75;;;19.80;;
42332;SDS011;27984;51.476;5.702;2023-12-14T09:05:11;30.17;;;19.33;;
42332;SDS011;27984;51.476;5.702;2023-12-14T09:07:37;29.35;;;18.90;;
42332;SDS011;27984;51.476;5.702;2023-12-14T09:10:03;30.40;;;18.17;;
42332;SDS011;27984;51.476;5.702;2023-12-14T09:12:29;26.70;;;18.05;;
42332;SDS011;27984;51.476;5.702;2023-12-14T09:14:55;29.50;;;17.17;;
42332;SDS011;27984;51.476;5.702;2023-12-14T09:17:21;26.38;;;16.23;;
42332;SDS011;27984;51.476;5.702;2023-12-14T09:19:47;26.77;;;16.67;;
42332;SDS011;27984;51.476;5.702;2023-12-14T09:22:13;26.25;;;16.23;;
42332;SDS011;27984;51.476;5.702;2023-12-14T09:24:39;26.98;;;16.23;;
42332;SDS011;27984;51.476;5.702;2023-12-14T09:27:05;24.52;;;15.65;;
42332;SDS011;27984;51.476;5.702;2023-12-14T09:29:31;26.77;;;15.75;;
42332;SDS011;27984;51.476;5.702;2023-12-14T09:31:57;24.95;;;14.77;;
42332;SDS011;27984;51.476;5.702;2023-12-14T09:34:23;23.80;;;14.40;;
42332;SDS011;27984;51.476;5.702;2023-12-14T09:36:49;25.83;;;15.10;;
42332;SDS011;27984;51.476;5.702;2023-12-14T09:39:15;22.85;;;14.70;;
42332;SDS011;27984;51.476;5.702;2023-12-14T09:41:44;23.10;;;14.32;;
42332;SDS011;27984;51.476;5.702;2023-12-14T09:44:11;26.42;;;15.07;;
42332;SDS011;27984;51.476;5.702;2023-12-14T09:46:37;21.25;;;14.10;;
42332;SDS011;27984;51.476;5.702;2023-12-14T09:49:04;21.15;;;14.50;;
42332;SDS011;27984;51.476;5.702;2023-12-14T09:51:30;21.98;;;13.82;;
42332;SDS011;27984;51.476;5.702;2023-12-14T09:53:56;22.63;;;14.13;;
42332;SDS011;27984;51.476;5.702;2023-12-14T09:56:24;23.08;;;13.75;;
42332;SDS011;27984;51.476;5.702;2023-12-14T09:58:50;22.98;;;14.15;;
42332;SDS011;27984;51.476;5.702;2023-12-14T10:01:23;20.63;;;13.50;;
42332;SDS011;27984;51.476;5.702;2023-12-14T10:03:49;23.40;;;13.48;;
42332;SDS011;27984;51.476;5.702;2023-12-14T10:06:17;22.48;;;13.55;;
42332;SDS011;27984;51.476;5.702;2023-12-14T10:08:49;20.88;;;13.27;;
42332;SDS011;27984;51.476;5.702;2023-12-14T10:11:19;20.67;;;13.23;;
42332;SDS011;27984;51.476;5.702;2023-12-14T10:13:45;21.30;;;13.15;;
42332;SDS011;27984;51.476;5.702;2023-12-14T10:16:11;21.05;;;13.45;;
42332;SDS011;27984;51.476;5.702;2023-12-14T10:18:37;20.65;;;13.18;;
42332;SDS011;27984;51.476;5.702;2023-12-14T10:21:05;17.27;;;12.48;;
42332;SDS011;27984;51.476;5.702;2023-12-14T10:23:32;22.08;;;14.10;;
42332;SDS011;27984;51.476;5.702;2023-12-14T10:26:00;23.35;;;13.05;;
42332;SDS011;27984;51.476;5.702;2023-12-14T10:28:26;19.10;;;13.55;;
42332;SDS011;27984;51.476;5.702;2023-12-14T10:30:52;18.63;;;13.02;;
42332;SDS011;27984;51.476;5.702;2023-12-14T10:33:19;19.33;;;12.52;;
42332;SDS011;27984;51.476;5.702;2023-12-14T10:35:45;20.08;;;12.90;;
42332;SDS011;27984;51.476;5.702;2023-12-14T10:38:12;20.73;;;13.18;;
42332;SDS011;27984;51.476;5.702;2023-12-14T10:40:38;16.77;;;12.32;;
42332;SDS011;27984;51.476;5.702;2023-12-14T10:43:08;20.27;;;13.45;;
42332;SDS011;27984;51.476;5.702;2023-12-14T10:45:34;19.40;;;12.40;;
42332;SDS011;27984;51.476;5.702;2023-12-14T10:48:01;21.35;;;12.98;;
42332;SDS011;27984;51.476;5.702;2023-12-14T10:50:29;17.00;;;12.68;;
42332;SDS011;27984;51.476;5.702;2023-12-14T10:52:55;20.40;;;13.15;;
42332;SDS011;27984;51.476;5.702;2023-12-14T10:55:26;17.33;;;12.57;;
42332;SDS011;27984;51.476;5.702;2023-12-14T10:57:55;18.13;;;12.85;;
42332;SDS011;27984;51.476;5.702;2023-12-14T11:00:22;18.98;;;12.98;;
42332;SDS011;27984;51.476;5.702;2023-12-14T11:02:48;18.95;;;13.13;;
42332;SDS011;27984;51.476;5.702;2023-12-14T11:05:15;14.95;;;11.02;;
42332;SDS011;27984;51.476;5.702;2023-12-14T11:07:45;15.82;;;11.40;;
42332;SDS011;27984;51.476;5.702;2023-12-14T11:10:11;17.60;;;12.52;;
42332;SDS011;27984;51.476;5.702;2023-12-14T11:12:37;18.38;;;11.88;;
42332;SDS011;27984;51.476;5.702;2023-12-14T11:15:07;14.43;;;10.80;;
42332;SDS011;27984;51.476;5.702;2023-12-14T11:17:35;17.63;;;12.07;;
42332;SDS011;27984;51.476;5.702;2023-12-14T11:20:23;13.95;;;10.90;;
42332;SDS011;27984;51.476;5.702;2023-12-14T11:22:49;15.27;;;10.80;;
42332;SDS011;27984;51.476;5.702;2023-12-14T11:25:16;17.55;;;11.88;;
42332;SDS011;27984;51.476;5.702;2023-12-14T11:27:43;16.13;;;11.88;;
42332;SDS011;27984;51.476;5.702;2023-12-14T11:30:10;22.25;;;12.63;;
42332;SDS011;27984;51.476;5.702;2023-12-14T11:32:38;18.23;;;12.50;;
42332;SDS011;27984;51.476;5.702;2023-12-14T11:35:05;15.90;;;11.93;;
42332;SDS011;27984;51.476;5.702;2023-12-14T11:37:33;20.40;;;12.15;;
42332;SDS011;27984;51.476;5.702;2023-12-14T11:40:00;17.70;;;11.60;;
42332;SDS011;27984;51.476;5.702;2023-12-14T11:42:26;15.30;;;11.25;;
42332;SDS011;27984;51.476;5.702;2023-12-14T11:44:56;15.90;;;11.60;;
42332;SDS011;27984;51.476;5.702;2023-12-14T11:47:22;16.88;;;11.02;;
42332;SDS011;27984;51.476;5.702;2023-12-14T11:49:48;15.27;;;11.13;;
42332;SDS011;27984;51.476;5.702;2023-12-14T11:52:14;15.98;;;10.75;;
42332;SDS011;27984;51.476;5.702;2023-12-14T11:54:40;17.90;;;10.82;;
42332;SDS011;27984;51.476;5.702;2023-12-14T11:57:06;15.50;;;10.93;;
42332;SDS011;27984;51.476;5.702;2023-12-14T11:59:34;14.85;;;10.90;;
42332;SDS011;27984;51.476;5.702;2023-12-14T12:02:01;15.90;;;10.48;;
42332;SDS011;27984;51.476;5.702;2023-12-14T12:04:28;15.98;;;10.43;;
42332;SDS011;27984;51.476;5.702;2023-12-14T12:07:03;14.38;;;10.70;;
42332;SDS011;27984;51.476;5.702;2023-12-14T12:09:33;15.82;;;11.52;;
42332;SDS011;27984;51.476;5.702;2023-12-14T12:12:00;16.48;;;10.93;;
42332;SDS011;27984;51.476;5.702;2023-12-14T12:14:27;15.68;;;10.63;;
42332;SDS011;27984;51.476;5.702;2023-12-14T12:16:53;17.23;;;10.75;;
42332;SDS011;27984;51.476;5.702;2023-12-14T12:19:20;15.48;;;10.90;;
42332;SDS011;27984;51.476;5.702;2023-12-14T12:21:46;17.33;;;10.98;;
42332;SDS011;27984;51.476;5.702;2023-12-14T12:24:12;15.48;;;11.27;;
42332;SDS011;27984;51.476;5.702;2023-12-14T12:26:38;16.92;;;11.60;;
42332;SDS011;27984;51.476;5.702;2023-12-14T12:29:05;16.42;;;11.48;;
42332;SDS011;27984;51.476;5.702;2023-12-14T12:31:31;16.38;;;11.45;;
42332;SDS011;27984;51.476;5.702;2023-12-14T12:33:59;15.25;;;12.05;;
42332;SDS011;27984;51.476;5.702;2023-12-14T12:36:25;15.88;;;11.63;;
42332;SDS011;27984;51.476;5.702;2023-12-14T12:38:51;18.25;;;11.73;;
42332;SDS011;27984;51.476;5.702;2023-12-14T12:41:17;14.45;;;11.43;;
42332;SDS011;27984;51.476;5.702;2023-12-14T12:43:43;18.63;;;11.52;;
42332;SDS011;27984;51.476;5.702;2023-12-14T12:46:09;15.02;;;11.48;;
42332;SDS011;27984;51.476;5.702;2023-12-14T12:48:36;16.02;;;11.30;;
42332;SDS011;27984;51.476;5.702;2023-12-14T12:51:02;14.65;;;10.93;;
42332;SDS011;27984;51.476;5.702;2023-12-14T12:53:28;12.73;;;10.10;;
42332;SDS011;27984;51.476;5.702;2023-12-14T12:55:54;13.18;;;9.52;;
42332;SDS011;27984;51.476;5.702;2023-12-14T12:58:20;13.98;;;9.80;;
42332;SDS011;27984;51.476;5.702;2023-12-14T13:00:46;15.20;;;10.75;;
42332;SDS011;27984;51.476;5.702;2023-12-14T13:03:12;14.27;;;10.50;;
42332;SDS011;27984;51.476;5.702;2023-12-14T13:05:38;14.43;;;10.40;;
42332;SDS011;27984;51.476;5.702;2023-12-14T13:08:04;14.63;;;10.32;;
42332;SDS011;27984;51.476;5.702;2023-12-14T13:10:30;14.98;;;10.40;;
42332;SDS011;27984;51.476;5.702;2023-12-14T13:12:56;16.20;;;10.30;;
42332;SDS011;27984;51.476;5.702;2023-12-14T13:15:22;17.95;;;12.80;;
42332;SDS011;27984;51.476;5.702;2023-12-14T13:17:50;15.10;;;11.55;;
42332;SDS011;27984;51.476;5.702;2023-12-14T13:20:16;17.02;;;12.07;;
42332;SDS011;27984;51.476;5.702;2023-12-14T13:22:43;15.88;;;11.32;;
42332;SDS011;27984;51.476;5.702;2023-12-14T13:25:09;17.17;;;12.25;;
42332;SDS011;27984;51.476;5.702;2023-12-14T13:27:35;17.30;;;11.90;;
42332;SDS011;27984;51.476;5.702;2023-12-14T13:30:01;14.77;;;11.43;;
42332;SDS011;27984;51.476;5.702;2023-12-14T13:32:28;14.85;;;11.80;;
42332;SDS011;27984;51.476;5.702;2023-12-14T13:34:53;17.27;;;11.57;;
42332;SDS011;27984;51.476;5.702;2023-12-14T13:37:19;15.63;;;11.30;;
42332;SDS011;27984;51.476;5.702;2023-12-14T13:39:45;15.80;;;10.88;;
42332;SDS011;27984;51.476;5.702;2023-12-14T13:42:13;14.80;;;11.20;;
42332;SDS011;27984;51.476;5.702;2023-12-14T13:44:40;14.23;;;10.82;;
42332;SDS011;27984;51.476;5.702;2023-12-14T13:47:06;15.40;;;11.07;;
42332;SDS011;27984;51.476;5.702;2023-12-14T13:49:33;14.60;;;11.13;;
42332;SDS011;27984;51.476;5.702;2023-12-14T13:51:59;13.68;;;10.52;;
42332;SDS011;27984;51.476;5.702;2023-12-14T13:54:25;13.25;;;10.52;;
42332;SDS011;27984;51.476;5.702;2023-12-14T13:56:51;14.90;;;10.75;;
42332;SDS011;27984;51.476;5.702;2023-12-14T13:59:18;15.52;;;10.98;;
42332;SDS011;27984;51.476;5.702;2023-12-14T14:01:44;14.57;;;11.20;;
42332;SDS011;27984;51.476;5.702;2023-12-14T14:04:10;15.57;;;10.77;;
42332;SDS011;27984;51.476;5.702;2023-12-14T14:06:36;16.40;;;11.55;;
42332;SDS011;27984;51.476;5.702;2023-12-14T14:09:02;17.10;;;12.00;;
42332;SDS011;27984;51.476;5.702;2023-12-14T14:11:29;18.50;;;11.10;;
42332;SDS011;27984;51.476;5.702;2023-12-14T14:13:55;16.60;;;11.68;;
42332;SDS011;27984;51.476;5.702;2023-12-14T14:16:21;15.95;;;11.60;;